馬祖南竿航空站 - ATIS

METAR RCFG 010500Z 18005KT 130V220 8000 FEW014 BKN200 30/26 Q1004 NOSIG RMK MAX WND 08KT 18006KT/R03 20006KT/NJL A2965(Z)=

站台狀態:Online
最後更新:2018-08-15 05:45:01